Time;durP1;ratioP1;P1;durP2;ratioP2;P2;SDS_P1;SDS_P2;PMS_P1;PMS_P2;Temp;Humidity;BMP_temperature;BMP_pressure;BME280_temperature;BME280_humidity;BME280_pressure;Samples;Min_cycle;Max_cycle;Signal;HPM_P1;HPM_P2
2021/04/24 00:01:56;;;;;;;5.50;2.13;;;;;;;;;;4996569;28;20037;-59
2021/04/24 00:04:30;;;;;;;4.40;2.53;;;;;;;;;;4989116;28;20029;-59
2021/04/24 00:06:58;;;;;;;6.20;2.45;;;;;;;;;;4991331;28;20136;-59
2021/04/24 00:09:26;;;;;;;4.90;2.17;;;;;;;;;;4998153;28;20098;-58
2021/04/24 00:11:56;;;;;;;4.22;3.13;;;;;;;;;;4998286;28;20029;-59
2021/04/24 00:14:21;;;;;;;4.45;2.85;;;;;;;;;;4988691;28;20610;-59
2021/04/24 00:16:47;;;;;;;5.80;2.42;;;;;;;;;;5001676;28;20648;-59
2021/04/24 00:19:15;;;;;;;4.55;2.33;;;;;;;;;;4996114;28;20033;-59
2021/04/24 00:21:45;;;;;;;7.22;2.70;;;;;;;;;;4994940;28;20068;-59
2021/04/24 00:24:13;;;;;;;5.10;2.30;;;;;;;;;;5000703;28;20033;-59
2021/04/24 00:26:38;;;;;;;4.25;2.45;;;;;;;;;;4986191;28;20049;-59
2021/04/24 00:29:06;;;;;;;5.15;2.45;;;;;;;;;;4997776;28;20979;-59
2021/04/24 00:31:36;;;;;;;4.85;2.58;;;;;;;;;;5001597;28;20078;-59
2021/04/24 00:34:04;;;;;;;4.07;1.95;;;;;;;;;;5001164;28;20041;-59
2021/04/24 00:36:32;;;;;;;4.93;2.58;;;;;;;;;;4998632;28;20030;-59
2021/04/24 00:39:00;;;;;;;5.50;2.47;;;;;;;;;;4985339;28;20060;-59
2021/04/24 00:41:30;;;;;;;7.00;3.00;;;;;;;;;;4999937;28;20033;-59
2021/04/24 00:43:56;;;;;;;5.35;2.83;;;;;;;;;;5002257;28;20160;-59
2021/04/24 00:46:26;;;;;;;10.80;3.08;;;;;;;;;;5000524;28;20663;-59
2021/04/24 00:48:56;;;;;;;6.63;2.65;;;;;;;;;;5000245;28;20057;-59
2021/04/24 00:51:21;;;;;;;4.43;2.38;;;;;;;;;;4998661;28;20053;-59
2021/04/24 00:53:47;;;;;;;5.03;2.53;;;;;;;;;;4973615;28;20125;-59
2021/04/24 00:56:17;;;;;;;6.43;2.80;;;;;;;;;;5000492;28;20069;-59
2021/04/24 00:58:42;;;;;;;5.55;2.88;;;;;;;;;;5000621;28;20497;-58
2021/04/24 01:01:10;;;;;;;8.63;2.70;;;;;;;;;;4968344;28;20234;-58
2021/04/24 01:03:36;;;;;;;5.05;3.03;;;;;;;;;;5000569;28;20064;-59
2021/04/24 01:06:04;;;;;;;4.78;2.75;;;;;;;;;;4999441;28;20676;-59
2021/04/24 01:08:29;;;;;;;3.53;2.22;;;;;;;;;;4986715;28;20048;-58
2021/04/24 01:10:55;;;;;;;3.40;2.25;;;;;;;;;;4998956;28;20121;-58
2021/04/24 01:13:21;;;;;;;5.10;2.90;;;;;;;;;;4998197;28;20046;-58
2021/04/24 01:15:49;;;;;;;5.00;2.65;;;;;;;;;;4979390;28;20033;-58
2021/04/24 01:18:18;;;;;;;4.82;2.30;;;;;;;;;;4998367;28;20296;-58
2021/04/24 01:20:46;;;;;;;6.72;2.75;;;;;;;;;;4988334;28;20033;-58
2021/04/24 01:23:16;;;;;;;7.95;2.90;;;;;;;;;;4998140;28;20034;-58
2021/04/24 01:25:44;;;;;;;7.45;3.35;;;;;;;;;;4988157;28;20173;-58
2021/04/24 01:28:14;;;;;;;6.63;2.55;;;;;;;;;;4999766;28;20115;-58
2021/04/24 01:30:40;;;;;;;9.57;3.15;;;;;;;;;;4983628;28;20033;-59
2021/04/24 01:33:12;;;;;;;4.72;2.45;;;;;;;;;;5000375;28;21759;-59
2021/04/24 01:35:43;;;;;;;6.43;2.70;;;;;;;;;;5004175;28;20041;-59
2021/04/24 01:38:10;;;;;;;4.78;3.15;;;;;;;;;;5000750;28;20041;-59
2021/04/24 01:40:36;;;;;;;4.10;2.90;;;;;;;;;;4998016;28;20031;-59
2021/04/24 01:43:06;;;;;;;5.78;3.20;;;;;;;;;;4999387;28;20037;-59
2021/04/24 01:45:34;;;;;;;5.85;3.08;;;;;;;;;;4998503;28;20960;-59
2021/04/24 01:47:59;;;;;;;8.02;2.67;;;;;;;;;;4985911;28;20117;-59
2021/04/24 01:50:29;;;;;;;5.60;3.00;;;;;;;;;;5003558;28;20025;-59
2021/04/24 01:52:56;;;;;;;5.03;3.05;;;;;;;;;;5006678;28;20392;-59
2021/04/24 01:55:24;;;;;;;6.72;2.97;;;;;;;;;;5003281;28;20033;-59
2021/04/24 01:57:56;;;;;;;5.00;2.47;;;;;;;;;;4999889;28;20045;-59
2021/04/24 02:00:36;;;;;;;4.95;2.03;;;;;;;;;;4999841;28;20029;-59
2021/04/24 02:03:03;;;;;;;4.55;2.30;;;;;;;;;;5001175;28;20469;-59
2021/04/24 02:05:29;;;;;;;4.40;2.75;;;;;;;;;;5001691;28;20057;-60
2021/04/24 02:08:08;;;;;;;3.78;2.35;;;;;;;;;;4999853;28;20042;-59
2021/04/24 02:10:36;;;;;;;7.07;2.72;;;;;;;;;;5007383;28;20049;-59
2021/04/24 02:13:07;;;;;;;4.07;2.45;;;;;;;;;;4999601;28;20056;-59
2021/04/24 02:15:40;;;;;;;5.28;2.40;;;;;;;;;;5003078;28;20046;-60
2021/04/24 02:18:10;;;;;;;5.68;2.28;;;;;;;;;;5005408;28;20030;-59
2021/04/24 02:20:39;;;;;;;6.32;2.38;;;;;;;;;;5000285;28;20061;-59
2021/04/24 02:23:08;;;;;;;5.00;2.60;;;;;;;;;;5007960;28;20370;-59
2021/04/24 02:25:36;;;;;;;5.20;2.53;;;;;;;;;;5013317;28;20563;-59
2021/04/24 02:28:05;;;;;;;3.67;2.17;;;;;;;;;;5003132;28;20032;-59
2021/04/24 02:30:34;;;;;;;6.50;2.58;;;;;;;;;;5001278;28;20046;-59
2021/04/24 02:33:03;;;;;;;7.35;2.70;;;;;;;;;;5002229;28;20037;-59
2021/04/24 02:35:50;;;;;;;8.85;3.22;;;;;;;;;;5007952;28;20580;-59
2021/04/24 02:38:22;;;;;;;6.60;3.78;;;;;;;;;;5001757;28;20159;-59
2021/04/24 02:40:48;;;;;;;6.43;3.20;;;;;;;;;;4999235;28;20113;-59
2021/04/24 02:43:19;;;;;;;9.07;2.85;;;;;;;;;;5017512;28;20037;-59
2021/04/24 02:45:47;;;;;;;4.78;2.22;;;;;;;;;;5002122;28;20033;-59
2021/04/24 02:48:18;;;;;;;4.68;2.97;;;;;;;;;;5000351;28;22085;-60
2021/04/24 02:50:46;;;;;;;6.50;2.50;;;;;;;;;;5016388;28;20030;-60
2021/04/24 02:53:14;;;;;;;12.25;2.63;;;;;;;;;;4998734;28;20592;-60
2021/04/24 02:55:41;;;;;;;10.40;2.97;;;;;;;;;;5001472;28;20108;-57
2021/04/24 02:58:14;;;;;;;5.03;2.65;;;;;;;;;;4999886;28;20149;-60
2021/04/24 03:00:42;;;;;;;6.28;2.97;;;;;;;;;;5006772;28;20037;-57
2021/04/24 03:03:14;;;;;;;5.28;2.83;;;;;;;;;;4985857;28;20635;-58
2021/04/24 03:05:41;;;;;;;6.22;2.97;;;;;;;;;;5002087;28;20187;-59
2021/04/24 03:08:09;;;;;;;5.35;2.92;;;;;;;;;;5001441;28;20030;-60
2021/04/24 03:10:36;;;;;;;4.95;2.33;;;;;;;;;;4998915;28;22041;-58
2021/04/24 03:13:02;;;;;;;5.45;3.05;;;;;;;;;;5002113;28;20091;-60
2021/04/24 03:15:27;;;;;;;8.88;2.85;;;;;;;;;;4990147;28;20140;-58
2021/04/24 03:17:55;;;;;;;6.68;3.08;;;;;;;;;;4998200;28;20022;-58
2021/04/24 03:20:25;;;;;;;4.18;2.15;;;;;;;;;;4986432;28;20057;-58
2021/04/24 03:22:53;;;;;;;8.80;3.08;;;;;;;;;;5004383;28;20041;-58
2021/04/24 03:25:22;;;;;;;8.60;3.03;;;;;;;;;;5002621;28;20088;-59
2021/04/24 03:27:47;;;;;;;7.72;3.00;;;;;;;;;;4985591;28;20183;-58
2021/04/24 03:30:13;;;;;;;4.97;2.25;;;;;;;;;;5002863;28;20641;-59
2021/04/24 03:32:44;;;;;;;8.13;2.53;;;;;;;;;;5000996;28;20029;-58
2021/04/24 03:35:10;;;;;;;5.15;2.70;;;;;;;;;;5000984;28;20033;-59
2021/04/24 03:37:36;;;;;;;4.53;2.63;;;;;;;;;;5002589;28;20055;-58
2021/04/24 03:40:04;;;;;;;7.32;3.03;;;;;;;;;;4999187;28;20060;-58
2021/04/24 03:42:30;;;;;;;6.28;3.17;;;;;;;;;;4999941;28;20455;-58
2021/04/24 03:44:55;;;;;;;6.57;2.85;;;;;;;;;;5000640;28;20038;-58
2021/04/24 03:47:23;;;;;;;6.70;2.67;;;;;;;;;;5005005;28;20134;-58
2021/04/24 03:49:49;;;;;;;7.55;2.80;;;;;;;;;;5007929;28;21054;-58
2021/04/24 03:52:17;;;;;;;8.45;3.58;;;;;;;;;;4999683;28;20110;-59
2021/04/24 03:54:47;;;;;;;5.53;2.05;;;;;;;;;;5006655;28;20386;-58
2021/04/24 03:57:17;;;;;;;5.30;2.35;;;;;;;;;;5001471;28;20619;-57
2021/04/24 03:59:42;;;;;;;7.43;2.67;;;;;;;;;;5000783;28;20116;-58
2021/04/24 04:02:10;;;;;;;6.30;2.35;;;;;;;;;;5000639;28;20116;-58
2021/04/24 04:04:41;;;;;;;5.63;2.97;;;;;;;;;;5000442;28;20066;-59
2021/04/24 04:07:09;;;;;;;5.07;2.70;;;;;;;;;;4985836;28;20050;-58
2021/04/24 04:09:35;;;;;;;8.40;3.28;;;;;;;;;;5001259;28;20034;-58
2021/04/24 04:12:05;;;;;;;7.18;3.13;;;;;;;;;;5004769;28;20038;-58
2021/04/24 04:14:31;;;;;;;5.03;2.65;;;;;;;;;;4998617;28;20037;-58
2021/04/24 04:16:56;;;;;;;4.57;2.42;;;;;;;;;;5000262;28;20079;-58
2021/04/24 04:19:24;;;;;;;5.72;2.33;;;;;;;;;;4999430;28;20030;-58
2021/04/24 04:21:51;;;;;;;5.38;2.47;;;;;;;;;;4986366;28;20068;-58
2021/04/24 04:24:17;;;;;;;7.72;2.75;;;;;;;;;;4998588;28;20041;-58
2021/04/24 04:26:43;;;;;;;5.13;2.60;;;;;;;;;;4999402;28;20036;-58
2021/04/24 04:29:11;;;;;;;6.25;2.85;;;;;;;;;;4997214;28;20026;-59
2021/04/24 04:31:37;;;;;;;5.80;3.42;;;;;;;;;;4997057;28;21097;-59
2021/04/24 04:34:05;;;;;;;3.40;1.67;;;;;;;;;;5000981;28;20062;-60
2021/04/24 04:36:35;;;;;;;5.60;2.63;;;;;;;;;;5005541;28;20294;-58
2021/04/24 04:39:00;;;;;;;2.90;2.20;;;;;;;;;;4998915;28;20030;-58
2021/04/24 04:41:28;;;;;;;5.57;2.85;;;;;;;;;;4998413;28;20045;-60
2021/04/24 04:43:53;;;;;;;8.32;3.00;;;;;;;;;;5000174;28;20121;-59
2021/04/24 04:46:19;;;;;;;6.45;2.95;;;;;;;;;;4986016;28;20079;-59
2021/04/24 04:48:45;;;;;;;6.45;3.05;;;;;;;;;;4983926;28;20060;-59
2021/04/24 04:51:10;;;;;;;6.95;2.90;;;;;;;;;;4999397;28;20045;-59
2021/04/24 04:53:36;;;;;;;5.60;2.80;;;;;;;;;;4999671;28;20038;-59
2021/04/24 04:56:07;;;;;;;3.95;2.17;;;;;;;;;;5000980;28;20029;-58
2021/04/24 04:58:32;;;;;;;7.43;3.33;;;;;;;;;;5003604;28;22117;-59
2021/04/24 05:01:02;;;;;;;9.93;3.33;;;;;;;;;;4996871;28;20191;-59
2021/04/24 05:03:27;;;;;;;7.78;3.22;;;;;;;;;;4998607;28;20026;-59
2021/04/24 05:05:56;;;;;;;8.10;3.20;;;;;;;;;;5001398;28;20135;-59
2021/04/24 05:08:21;;;;;;;6.53;3.33;;;;;;;;;;4995552;28;20044;-59
2021/04/24 05:10:54;;;;;;;11.63;3.03;;;;;;;;;;4999945;28;20137;-59
2021/04/24 05:13:20;;;;;;;11.25;3.45;;;;;;;;;;4996835;28;20034;-59
2021/04/24 05:15:45;;;;;;;6.78;3.25;;;;;;;;;;4995781;28;20042;-59
2021/04/24 05:18:11;;;;;;;5.97;2.88;;;;;;;;;;4983998;28;20041;-60
2021/04/24 05:20:39;;;;;;;8.40;2.67;;;;;;;;;;5004606;28;20033;-59
2021/04/24 05:23:05;;;;;;;6.18;3.03;;;;;;;;;;4998536;28;20025;-59
2021/04/24 05:25:33;;;;;;;5.97;3.10;;;;;;;;;;4988262;28;20049;-60
2021/04/24 05:28:01;;;;;;;6.00;2.70;;;;;;;;;;4998997;28;20041;-58
2021/04/24 05:30:26;;;;;;;6.30;3.25;;;;;;;;;;5001384;28;20049;-58
2021/04/24 05:32:56;;;;;;;11.98;3.13;;;;;;;;;;4983644;28;20049;-59
2021/04/24 05:35:21;;;;;;;5.65;3.15;;;;;;;;;;4990077;28;20860;-59
2021/04/24 05:37:47;;;;;;;5.47;2.83;;;;;;;;;;5003090;28;20480;-58
2021/04/24 05:40:15;;;;;;;10.45;3.20;;;;;;;;;;5004048;28;20069;-58
2021/04/24 05:42:45;;;;;;;6.93;3.38;;;;;;;;;;5002224;28;20038;-58
2021/04/24 05:45:12;;;;;;;5.00;3.08;;;;;;;;;;5003876;28;20030;-58
2021/04/24 05:47:41;;;;;;;8.27;2.53;;;;;;;;;;5000297;28;20025;-59
2021/04/24 05:50:07;;;;;;;8.10;2.95;;;;;;;;;;5000425;28;20041;-59
2021/04/24 05:52:35;;;;;;;8.48;3.42;;;;;;;;;;4998452;28;20068;-59
2021/04/24 05:55:07;;;;;;;7.18;2.97;;;;;;;;;;5002304;28;20034;-59
2021/04/24 05:57:33;;;;;;;5.30;3.40;;;;;;;;;;5002128;28;20030;-59
2021/04/24 06:00:04;;;;;;;5.03;3.25;;;;;;;;;;4999254;28;20351;-59
2021/04/24 06:02:30;;;;;;;9.38;3.47;;;;;;;;;;5000906;28;20048;-59
2021/04/24 06:04:56;;;;;;;5.10;2.92;;;;;;;;;;5000445;28;20045;-61
2021/04/24 06:07:22;;;;;;;6.20;3.67;;;;;;;;;;4990463;28;20037;-61
2021/04/24 06:09:48;;;;;;;5.15;3.30;;;;;;;;;;5001381;28;20903;-61
2021/04/24 06:12:13;;;;;;;7.22;3.70;;;;;;;;;;5001894;28;20095;-61
2021/04/24 06:14:43;;;;;;;7.25;3.15;;;;;;;;;;5002574;28;20086;-61
2021/04/24 06:17:11;;;;;;;6.10;2.97;;;;;;;;;;5001266;28;20033;-61
2021/04/24 06:19:37;;;;;;;8.35;3.13;;;;;;;;;;5007182;28;20061;-61
2021/04/24 06:22:02;;;;;;;7.30;3.22;;;;;;;;;;4990618;28;20156;-62
2021/04/24 06:24:30;;;;;;;2.97;2.00;;;;;;;;;;5003128;28;21990;-61
2021/04/24 06:26:58;;;;;;;8.35;2.88;;;;;;;;;;5002639;28;20064;-60
2021/04/24 06:29:24;;;;;;;4.60;2.50;;;;;;;;;;5001847;28;20037;-60
2021/04/24 06:31:50;;;;;;;8.70;2.83;;;;;;;;;;5000845;28;20095;-61
2021/04/24 06:34:17;;;;;;;6.47;2.78;;;;;;;;;;5001450;28;20037;-61
2021/04/24 06:36:43;;;;;;;4.43;2.17;;;;;;;;;;5000962;28;20036;-62
2021/04/24 06:39:08;;;;;;;5.97;2.22;;;;;;;;;;5002905;28;20881;-62
2021/04/24 06:41:36;;;;;;;7.40;2.88;;;;;;;;;;4998614;28;20061;-62
2021/04/24 06:44:05;;;;;;;7.30;3.25;;;;;;;;;;4987851;28;20025;-61
2021/04/24 06:46:31;;;;;;;4.30;2.22;;;;;;;;;;5000702;28;20029;-61
2021/04/24 06:48:57;;;;;;;7.32;2.35;;;;;;;;;;4985609;28;20187;-60
2021/04/24 06:51:22;;;;;;;6.55;2.30;;;;;;;;;;5007745;28;20074;-61
2021/04/24 06:53:52;;;;;;;7.82;2.42;;;;;;;;;;5001696;28;20030;-61
2021/04/24 06:56:18;;;;;;;10.75;2.50;;;;;;;;;;5001579;28;20063;-62
2021/04/24 06:58:47;;;;;;;8.27;2.20;;;;;;;;;;5001025;28;20044;-62
2021/04/24 07:01:16;;;;;;;5.95;2.60;;;;;;;;;;5000025;28;20156;-62
2021/04/24 07:03:48;;;;;;;3.97;1.67;;;;;;;;;;4999560;28;20104;-62
2021/04/24 07:06:17;;;;;;;6.65;1.85;;;;;;;;;;4999359;28;20049;-61
2021/04/24 07:08:43;;;;;;;7.45;2.05;;;;;;;;;;5000201;28;20992;-63
2021/04/24 07:11:09;;;;;;;7.97;2.17;;;;;;;;;;5003486;28;20033;-62
2021/04/24 07:13:37;;;;;;;6.03;2.00;;;;;;;;;;4988843;28;20048;-62
2021/04/24 07:16:05;;;;;;;6.35;2.40;;;;;;;;;;4999628;28;21021;-61
2021/04/24 07:18:34;;;;;;;9.45;2.65;;;;;;;;;;4996189;28;20063;-63
2021/04/24 07:20:59;;;;;;;7.70;1.90;;;;;;;;;;4983601;28;20033;-63
2021/04/24 07:23:25;;;;;;;9.15;2.25;;;;;;;;;;5000938;28;20040;-62
2021/04/24 07:25:54;;;;;;;7.82;1.95;;;;;;;;;;4984917;28;20061;-62
2021/04/24 07:28:23;;;;;;;5.93;2.50;;;;;;;;;;5002131;28;20036;-63
2021/04/24 07:30:52;;;;;;;5.35;2.08;;;;;;;;;;4996851;28;20042;-63
2021/04/24 07:33:18;;;;;;;4.38;1.90;;;;;;;;;;4998659;28;20536;-61
2021/04/24 07:35:46;;;;;;;8.88;2.22;;;;;;;;;;4987699;28;20033;-62
2021/04/24 07:38:12;;;;;;;5.00;2.30;;;;;;;;;;4997114;28;20037;-62
2021/04/24 07:40:40;;;;;;;9.52;2.47;;;;;;;;;;4989693;28;20037;-63
2021/04/24 07:43:06;;;;;;;6.40;2.00;;;;;;;;;;4988503;28;20798;-62
2021/04/24 07:45:35;;;;;;;7.32;2.53;;;;;;;;;;4998522;28;20040;-62
2021/04/24 07:48:11;;;;;;;7.05;1.90;;;;;;;;;;4977997;28;20033;-62
2021/04/24 07:50:42;;;;;;;6.65;1.90;;;;;;;;;;4989214;28;20041;-62
2021/04/24 07:53:11;;;;;;;11.52;2.00;;;;;;;;;;4982713;28;20354;-64
2021/04/24 07:55:39;;;;;;;6.55;2.15;;;;;;;;;;4996520;28;20029;-64
2021/04/24 07:58:05;;;;;;;5.25;2.22;;;;;;;;;;4998723;28;20046;-64
2021/04/24 08:00:31;;;;;;;7.32;2.53;;;;;;;;;;5000604;28;20715;-62
2021/04/24 08:02:57;;;;;;;9.18;2.20;;;;;;;;;;4998898;28;20122;-62
2021/04/24 08:05:23;;;;;;;7.80;2.25;;;;;;;;;;4998132;28;20136;-63
2021/04/24 08:07:48;;;;;;;6.50;2.17;;;;;;;;;;4996558;28;20037;-64
2021/04/24 08:10:17;;;;;;;7.82;2.13;;;;;;;;;;4998640;28;20035;-63
2021/04/24 08:12:42;;;;;;;9.18;2.20;;;;;;;;;;4997566;28;20068;-62
2021/04/24 08:15:12;;;;;;;7.07;2.22;;;;;;;;;;4987885;28;20536;-63
2021/04/24 08:17:40;;;;;;;4.47;1.80;;;;;;;;;;4995636;28;20037;-63
2021/04/24 08:20:07;;;;;;;6.68;2.17;;;;;;;;;;4985448;28;20042;-62
2021/04/24 08:22:38;;;;;;;8.85;2.42;;;;;;;;;;4980988;28;20041;-63
2021/04/24 08:25:05;;;;;;;5.35;2.17;;;;;;;;;;5005843;28;20034;-63
2021/04/24 08:27:31;;;;;;;6.80;2.15;;;;;;;;;;5000938;28;20064;-63
2021/04/24 08:29:57;;;;;;;6.70;2.33;;;;;;;;;;4985121;28;20045;-62
2021/04/24 08:32:24;;;;;;;12.15;2.05;;;;;;;;;;4997755;28;20052;-64
2021/04/24 08:34:49;;;;;;;7.82;2.40;;;;;;;;;;5000519;28;20029;-63
2021/04/24 08:37:15;;;;;;;13.07;2.17;;;;;;;;;;4997889;28;20029;-64
2021/04/24 08:39:43;;;;;;;6.50;2.20;;;;;;;;;;4999204;28;20053;-63
2021/04/24 08:42:11;;;;;;;8.73;1.90;;;;;;;;;;4997928;28;20560;-65
2021/04/24 08:44:38;;;;;;;9.57;1.95;;;;;;;;;;4999828;28;20091;-63
2021/04/24 08:47:06;;;;;;;9.65;2.33;;;;;;;;;;4997738;28;20515;-63
2021/04/24 08:49:32;;;;;;;6.55;2.42;;;;;;;;;;5000894;28;20055;-64
2021/04/24 08:52:01;;;;;;;9.85;2.78;;;;;;;;;;4999714;28;20990;-63
2021/04/24 08:54:27;;;;;;;9.25;2.00;;;;;;;;;;5006218;28;20475;-63
2021/04/24 08:56:53;;;;;;;10.10;2.47;;;;;;;;;;4993876;28;21160;-64
2021/04/24 08:59:21;;;;;;;10.75;2.55;;;;;;;;;;5003361;28;20041;-62
2021/04/24 09:01:47;;;;;;;8.50;2.92;;;;;;;;;;5002510;28;20033;-64
2021/04/24 09:04:15;;;;;;;6.15;2.20;;;;;;;;;;4988177;28;20034;-63
2021/04/24 09:06:41;;;;;;;13.33;2.70;;;;;;;;;;5002722;28;20077;-63
2021/04/24 09:09:08;;;;;;;5.95;2.10;;;;;;;;;;5000947;28;20280;-63
2021/04/24 09:11:40;;;;;;;7.63;2.13;;;;;;;;;;5002802;28;20091;-64
2021/04/24 09:14:08;;;;;;;5.72;1.65;;;;;;;;;;5003247;28;21026;-63
2021/04/24 09:16:34;;;;;;;3.60;1.20;;;;;;;;;;5005788;28;20068;-64
2021/04/24 09:19:23;;;;;;;5.82;1.42;;;;;;;;;;5003328;28;20046;-64
2021/04/24 09:22:09;;;;;;;8.85;1.70;;;;;;;;;;4993023;28;20046;-63
2021/04/24 09:24:38;;;;;;;4.72;1.40;;;;;;;;;;5000602;28;20045;-64
2021/04/24 09:27:04;;;;;;;5.75;1.85;;;;;;;;;;5002554;28;20508;-64
2021/04/24 09:29:32;;;;;;;4.82;1.30;;;;;;;;;;5001413;28;20038;-65
2021/04/24 09:32:19;;;;;;;3.67;1.55;;;;;;;;;;5008543;28;20707;-64
2021/04/24 09:34:51;;;;;;;4.28;1.27;;;;;;;;;;5001498;28;20037;-64
2021/04/24 09:37:21;;;;;;;9.95;1.45;;;;;;;;;;4984001;28;20042;-64
2021/04/24 09:39:54;;;;;;;2.45;1.23;;;;;;;;;;5005297;28;20129;-64
2021/04/24 09:42:38;;;;;;;4.05;1.67;;;;;;;;;;5002317;28;20064;-63
2021/04/24 09:45:08;;;;;;;3.33;1.48;;;;;;;;;;4991234;28;20037;-67
2021/04/24 09:47:44;;;;;;;6.15;1.33;;;;;;;;;;5000028;28;20060;-63
2021/04/24 09:50:17;;;;;;;3.15;1.25;;;;;;;;;;5003828;28;20039;-63
2021/04/24 09:52:49;;;;;;;9.88;1.35;;;;;;;;;;5000463;28;20474;-64
2021/04/24 09:55:33;;;;;;;10.60;1.27;;;;;;;;;;4988241;28;20127;-65
2021/04/24 09:58:22;;;;;;;3.85;1.27;;;;;;;;;;5006377;28;20077;-65
2021/04/24 10:00:47;;;;;;;8.73;1.48;;;;;;;;;;5002719;28;20661;-64
2021/04/24 10:03:32;;;;;;;6.70;0.90;;;;;;;;;;5000544;28;20038;-66
2021/04/24 10:06:20;;;;;;;3.92;1.05;;;;;;;;;;4998415;28;20050;-64
2021/04/24 10:08:53;;;;;;;2.47;0.88;;;;;;;;;;5001883;28;20188;-64
2021/04/24 10:11:28;;;;;;;3.60;1.23;;;;;;;;;;5004312;28;20032;-64
2021/04/24 10:13:54;;;;;;;2.63;0.85;;;;;;;;;;5003319;28;20041;-65
2021/04/24 10:16:35;;;;;;;2.35;0.88;;;;;;;;;;5015092;28;20018;-65
2021/04/24 10:19:02;;;;;;;2.58;0.80;;;;;;;;;;4989601;28;20038;-64
2021/04/24 10:21:29;;;;;;;3.75;0.90;;;;;;;;;;4998128;28;20030;-64
2021/04/24 10:23:58;;;;;;;4.00;1.45;;;;;;;;;;5006603;28;20045;-64
2021/04/24 10:26:25;;;;;;;4.05;1.35;;;;;;;;;;5002718;28;20045;-64
2021/04/24 10:28:52;;;;;;;4.68;0.80;;;;;;;;;;4997119;28;20041;-63
2021/04/24 10:31:18;;;;;;;2.55;0.80;;;;;;;;;;5002018;28;20107;-64
2021/04/24 10:33:44;;;;;;;5.82;1.58;;;;;;;;;;5001132;28;20672;-65
2021/04/24 10:36:11;;;;;;;3.08;1.23;;;;;;;;;;4997592;28;20043;-65
2021/04/24 10:38:44;;;;;;;2.28;1.00;;;;;;;;;;4999303;28;20764;-65
2021/04/24 10:41:13;;;;;;;3.28;1.08;;;;;;;;;;5002376;28;20041;-64
2021/04/24 10:43:44;;;;;;;4.45;1.00;;;;;;;;;;5000943;28;20042;-64
2021/04/24 10:46:30;;;;;;;1.55;0.80;;;;;;;;;;5004697;28;20216;-64
2021/04/24 10:49:26;;;;;;;3.60;1.35;;;;;;;;;;5000520;28;20042;-63
2021/04/24 10:51:56;;;;;;;2.22;1.00;;;;;;;;;;4986758;28;20045;-64
2021/04/24 10:54:26;;;;;;;3.42;1.10;;;;;;;;;;5001096;28;20030;-64
2021/04/24 10:56:52;;;;;;;2.67;0.88;;;;;;;;;;5000720;28;20829;-63
2021/04/24 10:59:21;;;;;;;6.05;1.25;;;;;;;;;;5001912;28;20034;-63
2021/04/24 11:02:12;;;;;;;6.07;1.20;;;;;;;;;;4999482;28;20021;-63
2021/04/24 11:04:39;;;;;;;3.90;1.20;;;;;;;;;;5000618;28;20204;-63
2021/04/24 11:07:22;;;;;;;3.67;1.15;;;;;;;;;;5003845;28;20207;-63
2021/04/24 11:10:07;;;;;;;2.95;1.13;;;;;;;;;;5000840;28;20045;-63
2021/04/24 11:12:33;;;;;;;4.60;1.00;;;;;;;;;;5001310;28;20030;-64
2021/04/24 11:15:03;;;;;;;4.07;1.08;;;;;;;;;;5004718;28;20029;-64
2021/04/24 11:17:32;;;;;;;4.10;1.38;;;;;;;;;;4999315;28;20038;-63
2021/04/24 11:20:01;;;;;;;4.85;1.20;;;;;;;;;;5000914;28;20040;-63
2021/04/24 11:22:33;;;;;;;3.08;0.90;;;;;;;;;;4984757;28;20045;-63
2021/04/24 11:25:36;;;;;;;2.88;0.88;;;;;;;;;;4998545;28;20025;-63
2021/04/24 11:28:05;;;;;;;3.92;1.20;;;;;;;;;;4941719;28;20030;-63
2021/04/24 11:30:50;;;;;;;3.03;1.00;;;;;;;;;;4991747;28;20485;-65
2021/04/24 11:33:34;;;;;;;2.00;0.90;;;;;;;;;;4999806;28;20152;-66
2021/04/24 11:36:21;;;;;;;2.85;1.30;;;;;;;;;;5000899;28;20030;-62
2021/04/24 11:38:56;;;;;;;5.30;1.20;;;;;;;;;;4996374;28;20029;-61
2021/04/24 11:41:33;;;;;;;2.63;0.98;;;;;;;;;;5002614;28;20079;-64
2021/04/24 11:44:17;;;;;;;2.95;1.23;;;;;;;;;;4998473;28;20160;-64
2021/04/24 11:46:45;;;;;;;3.67;0.85;;;;;;;;;;5000243;28;20064;-65
2021/04/24 11:49:11;;;;;;;1.73;0.77;;;;;;;;;;5000784;28;21248;-64
2021/04/24 11:51:42;;;;;;;1.67;0.90;;;;;;;;;;4999439;28;20029;-64
2021/04/24 11:54:09;;;;;;;3.55;0.90;;;;;;;;;;5001240;28;20026;-63
2021/04/24 11:56:39;;;;;;;1.33;0.70;;;;;;;;;;5002474;28;20097;-64
2021/04/24 11:59:04;;;;;;;3.22;0.70;;;;;;;;;;4997862;28;20060;-64
2021/04/24 12:01:30;;;;;;;3.05;0.80;;;;;;;;;;4995878;28;20036;-63
2021/04/24 12:03:57;;;;;;;4.13;0.95;;;;;;;;;;4999176;28;20421;-63
2021/04/24 12:06:45;;;;;;;10.00;1.00;;;;;;;;;;4986216;28;20065;-64
2021/04/24 12:09:14;;;;;;;2.83;1.10;;;;;;;;;;4983474;28;20703;-64
2021/04/24 12:11:52;;;;;;;1.63;0.65;;;;;;;;;;4994268;28;20059;-65
2021/04/24 12:14:30;;;;;;;3.22;1.30;;;;;;;;;;4994561;28;20049;-63
2021/04/24 12:16:57;;;;;;;2.70;1.05;;;;;;;;;;4983055;28;20090;-63
2021/04/24 12:19:39;;;;;;;2.95;0.90;;;;;;;;;;4996751;28;21128;-64
2021/04/24 12:22:14;;;;;;;2.00;1.00;;;;;;;;;;4996771;28;20263;-63
2021/04/24 12:25:19;;;;;;;2.45;1.10;;;;;;;;;;4995883;28;20143;-62
2021/04/24 12:27:45;;;;;;;;;;;;;;;;;;4994780;28;20534;-63
2021/04/24 12:30:14;;;;;;;3.42;1.08;;;;;;;;;;4983575;28;19917;-63
2021/04/24 12:32:41;;;;;;;4.57;1.10;;;;;;;;;;4999584;28;20036;-63
2021/04/24 12:35:11;;;;;;;3.20;1.08;;;;;;;;;;4978111;28;20024;-64
2021/04/24 12:37:39;;;;;;;4.07;0.80;;;;;;;;;;4995630;28;20037;-64
2021/04/24 12:40:07;;;;;;;6.13;1.10;;;;;;;;;;4983098;28;20041;-63
2021/04/24 12:42:36;;;;;;;1.30;0.75;;;;;;;;;;4980732;28;20044;-63
2021/04/24 12:45:07;;;;;;;2.22;0.77;;;;;;;;;;4993611;28;20049;-63
2021/04/24 12:47:44;;;;;;;4.10;0.90;;;;;;;;;;4995062;28;20033;-64
2021/04/24 12:50:21;;;;;;;3.28;1.10;;;;;;;;;;4995400;28;20057;-63
2021/04/24 12:52:46;;;;;;;;;;;;;;;;;;4992078;28;20095;-62
2021/04/24 12:55:17;;;;;;;4.38;0.95;;;;;;;;;;4996426;28;20111;-63
2021/04/24 12:57:52;;;;;;;4.80;1.05;;;;;;;;;;4993663;28;20037;-63
2021/04/24 13:00:19;;;;;;;2.60;1.00;;;;;;;;;;4995361;28;21333;-64
2021/04/24 13:02:45;;;;;;;5.45;1.35;;;;;;;;;;4995071;28;20033;-63
2021/04/24 13:05:12;;;;;;;3.13;0.98;;;;;;;;;;4996494;28;20656;-64
2021/04/24 13:07:39;;;;;;;3.45;1.20;;;;;;;;;;4982606;28;20068;-63
2021/04/24 13:10:20;;;;;;;5.22;1.13;;;;;;;;;;4998464;28;20034;-64
2021/04/24 13:12:52;;;;;;;5.18;1.08;;;;;;;;;;5002826;28;20109;-64
2021/04/24 13:15:18;;;;;;;6.20;1.10;;;;;;;;;;5005437;28;20026;-63
2021/04/24 13:17:50;;;;;;;3.47;1.05;;;;;;;;;;4985972;28;20496;-63
2021/04/24 13:20:32;;;;;;;5.63;1.15;;;;;;;;;;4981928;28;20134;-64
2021/04/24 13:23:03;;;;;;;4.00;1.35;;;;;;;;;;4988033;28;20034;-62
2021/04/24 13:25:34;;;;;;;4.28;1.08;;;;;;;;;;4999614;28;20041;-63
2021/04/24 13:28:06;;;;;;;3.30;1.00;;;;;;;;;;5004710;28;20068;-63
2021/04/24 13:30:42;;;;;;;1.00;0.75;;;;;;;;;;4998873;28;20032;-63
2021/04/24 13:33:08;;;;;;;6.50;1.48;;;;;;;;;;4992785;28;20039;-63
2021/04/24 13:35:43;;;;;;;2.33;1.00;;;;;;;;;;4995250;28;20472;-68
2021/04/24 13:38:10;;;;;;;6.57;1.30;;;;;;;;;;4995152;28;20061;-63
2021/04/24 13:40:42;;;;;;;1.35;0.82;;;;;;;;;;5008349;28;20033;-64
2021/04/24 13:43:08;;;;;;;2.53;1.20;;;;;;;;;;4997200;28;20034;-66
2021/04/24 13:45:34;;;;;;;3.45;0.68;;;;;;;;;;5003673;28;20111;-63
2021/04/24 13:48:06;;;;;;;3.80;1.33;;;;;;;;;;4985961;28;20037;-66
2021/04/24 13:50:34;;;;;;;5.05;0.90;;;;;;;;;;5005327;28;20056;-61
2021/04/24 13:53:00;;;;;;;4.45;1.10;;;;;;;;;;4999525;28;20057;-65
2021/04/24 13:55:27;;;;;;;5.75;1.10;;;;;;;;;;4998559;28;20112;-62
2021/04/24 13:58:22;;;;;;;2.70;1.00;;;;;;;;;;5000253;28;20056;-63
2021/04/24 14:00:56;;;;;;;2.72;0.77;;;;;;;;;;4999045;28;20049;-62
2021/04/24 14:03:24;;;;;;;5.60;1.15;;;;;;;;;;4989717;28;20061;-62
2021/04/24 14:05:58;;;;;;;1.85;1.08;;;;;;;;;;4996232;28;20051;-63
2021/04/24 14:08:24;;;;;;;4.38;1.17;;;;;;;;;;4983843;28;20087;-62
2021/04/24 14:11:00;;;;;;;2.72;0.80;;;;;;;;;;4998237;28;20550;-63
2021/04/24 14:13:28;;;;;;;1.85;1.00;;;;;;;;;;4999533;28;20045;-63
2021/04/24 14:15:54;;;;;;;2.65;1.05;;;;;;;;;;5000622;28;20029;-63
2021/04/24 14:18:19;;;;;;;1.85;1.02;;;;;;;;;;5001389;28;20045;-63
2021/04/24 14:20:51;;;;;;;3.20;0.60;;;;;;;;;;4999771;28;20041;-63
2021/04/24 14:23:22;;;;;;;0.90;0.63;;;;;;;;;;4998532;28;20041;-63
2021/04/24 14:25:48;;;;;;;0.70;0.50;;;;;;;;;;4997732;28;20037;-63
2021/04/24 14:28:14;;;;;;;1.92;1.00;;;;;;;;;;4999471;28;20933;-63
2021/04/24 14:30:45;;;;;;;1.33;1.00;;;;;;;;;;4999062;28;20120;-63
2021/04/24 14:33:11;;;;;;;1.58;0.95;;;;;;;;;;4987599;28;20029;-64
2021/04/24 14:35:36;;;;;;;2.60;1.35;;;;;;;;;;4998335;28;20084;-62
2021/04/24 14:38:03;;;;;;;2.55;0.90;;;;;;;;;;4999475;28;20133;-62
2021/04/24 14:40:29;;;;;;;1.95;0.77;;;;;;;;;;4994208;28;20441;-64
2021/04/24 14:42:55;;;;;;;2.33;0.82;;;;;;;;;;4998932;28;20652;-63
2021/04/24 14:45:22;;;;;;;4.30;1.20;;;;;;;;;;4999907;28;20038;-63
2021/04/24 14:47:47;;;;;;;3.17;0.60;;;;;;;;;;5003323;28;20397;-62
2021/04/24 14:50:15;;;;;;;4.40;1.33;;;;;;;;;;5000001;28;20660;-64
2021/04/24 14:52:44;;;;;;;1.92;1.33;;;;;;;;;;4989448;28;20159;-63
2021/04/24 14:55:16;;;;;;;2.58;0.88;;;;;;;;;;4999690;28;20104;-63
2021/04/24 14:57:42;;;;;;;1.55;0.93;;;;;;;;;;5004549;28;20037;-63